sensor_id;sensor_type;location;lat;lon;timestamp;P1;durP1;ratioP1;P2;durP2;ratioP2
1507;SDS011;745;48.586;10.032;2022-09-16T00:01:47;10.83;;;9.73;;
1507;SDS011;745;48.586;10.032;2022-09-16T00:06:19;13.03;;;11.07;;
1507;SDS011;745;48.586;10.032;2022-09-16T00:10:50;14.13;;;9.50;;
1507;SDS011;745;48.586;10.032;2022-09-16T00:15:21;11.63;;;10.43;;
1507;SDS011;745;48.586;10.032;2022-09-16T00:19:52;9.80;;;8.80;;
1507;SDS011;745;48.586;10.032;2022-09-16T00:24:22;9.63;;;8.53;;
1507;SDS011;745;48.586;10.032;2022-09-16T00:28:53;8.60;;;7.70;;
1507;SDS011;745;48.586;10.032;2022-09-16T00:33:23;9.70;;;8.80;;
1507;SDS011;745;48.586;10.032;2022-09-16T00:37:54;8.53;;;7.73;;
1507;SDS011;745;48.586;10.032;2022-09-16T00:42:25;7.67;;;6.87;;
1507;SDS011;745;48.586;10.032;2022-09-16T00:46:55;7.20;;;6.50;;
1507;SDS011;745;48.586;10.032;2022-09-16T00:51:26;7.93;;;7.10;;
1507;SDS011;745;48.586;10.032;2022-09-16T00:55:58;8.30;;;7.50;;
1507;SDS011;745;48.586;10.032;2022-09-16T01:00:30;7.80;;;7.00;;
1507;SDS011;745;48.586;10.032;2022-09-16T01:09:32;7.57;;;6.83;;
1507;SDS011;745;48.586;10.032;2022-09-16T01:14:04;7.60;;;6.90;;
1507;SDS011;745;48.586;10.032;2022-09-16T01:18:56;8.40;;;7.60;;
1507;SDS011;745;48.586;10.032;2022-09-16T01:33:31;7.07;;;6.40;;
1507;SDS011;745;48.586;10.032;2022-09-16T01:43:35;9.20;;;7.90;;
1507;SDS011;745;48.586;10.032;2022-09-16T01:48:41;8.53;;;7.63;;
1507;SDS011;745;48.586;10.032;2022-09-16T01:58:09;8.17;;;7.37;;
1507;SDS011;745;48.586;10.032;2022-09-16T02:02:46;8.90;;;7.60;;
1507;SDS011;745;48.586;10.032;2022-09-16T02:07:20;8.90;;;8.00;;
1507;SDS011;745;48.586;10.032;2022-09-16T02:11:52;7.57;;;6.87;;
1507;SDS011;745;48.586;10.032;2022-09-16T02:21:24;7.83;;;6.60;;
1507;SDS011;745;48.586;10.032;2022-09-16T02:25:56;9.00;;;8.10;;
1507;SDS011;745;48.586;10.032;2022-09-16T02:30:27;8.57;;;7.67;;
1507;SDS011;745;48.586;10.032;2022-09-16T02:34:58;7.63;;;6.83;;
1507;SDS011;745;48.586;10.032;2022-09-16T02:39:29;7.53;;;6.73;;
1507;SDS011;745;48.586;10.032;2022-09-16T02:44:01;9.10;;;8.20;;
1507;SDS011;745;48.586;10.032;2022-09-16T02:48:41;9.00;;;8.20;;
1507;SDS011;745;48.586;10.032;2022-09-16T02:58:05;16.33;;;12.00;;
1507;SDS011;745;48.586;10.032;2022-09-16T03:02:36;10.13;;;9.13;;
1507;SDS011;745;48.586;10.032;2022-09-16T03:07:08;11.70;;;10.23;;
1507;SDS011;745;48.586;10.032;2022-09-16T03:11:44;9.77;;;8.03;;
1507;SDS011;745;48.586;10.032;2022-09-16T03:16:35;9.00;;;8.13;;
1507;SDS011;745;48.586;10.032;2022-09-16T03:31:38;10.20;;;9.10;;
1507;SDS011;745;48.586;10.032;2022-09-16T03:36:17;11.27;;;10.13;;
1507;SDS011;745;48.586;10.032;2022-09-16T03:40:50;10.50;;;9.50;;
1507;SDS011;745;48.586;10.032;2022-09-16T03:45:21;13.60;;;11.30;;
1507;SDS011;745;48.586;10.032;2022-09-16T03:49:51;10.67;;;9.37;;
1507;SDS011;745;48.586;10.032;2022-09-16T03:54:22;11.30;;;10.10;;
1507;SDS011;745;48.586;10.032;2022-09-16T03:58:52;12.13;;;10.73;;
1507;SDS011;745;48.586;10.032;2022-09-16T04:03:23;10.33;;;9.33;;
1507;SDS011;745;48.586;10.032;2022-09-16T04:07:53;10.70;;;9.60;;
1507;SDS011;745;48.586;10.032;2022-09-16T04:12:24;9.87;;;8.87;;
1507;SDS011;745;48.586;10.032;2022-09-16T04:16:55;10.00;;;8.70;;
1507;SDS011;745;48.586;10.032;2022-09-16T04:21:26;9.20;;;8.23;;
1507;SDS011;745;48.586;10.032;2022-09-16T04:25:57;8.90;;;8.00;;
1507;SDS011;745;48.586;10.032;2022-09-16T04:30:29;12.27;;;8.03;;
1507;SDS011;745;48.586;10.032;2022-09-16T04:35:00;9.63;;;8.70;;
1507;SDS011;745;48.586;10.032;2022-09-16T04:39:30;12.27;;;10.57;;
1507;SDS011;745;48.586;10.032;2022-09-16T04:44:01;17.03;;;12.53;;
1507;SDS011;745;48.586;10.032;2022-09-16T04:48:32;16.03;;;11.80;;
1507;SDS011;745;48.586;10.032;2022-09-16T04:53:03;14.53;;;13.03;;
1507;SDS011;745;48.586;10.032;2022-09-16T04:57:34;13.80;;;12.33;;
1507;SDS011;745;48.586;10.032;2022-09-16T05:02:04;14.97;;;13.03;;
1507;SDS011;745;48.586;10.032;2022-09-16T05:06:37;14.90;;;13.20;;
1507;SDS011;745;48.586;10.032;2022-09-16T05:11:10;13.27;;;11.33;;
1507;SDS011;745;48.586;10.032;2022-09-16T05:15:47;8.97;;;8.07;;
1507;SDS011;745;48.586;10.032;2022-09-16T05:20:18;10.27;;;9.17;;
1507;SDS011;745;48.586;10.032;2022-09-16T05:24:48;9.87;;;8.87;;
1507;SDS011;745;48.586;10.032;2022-09-16T05:29:19;8.00;;;7.30;;
1507;SDS011;745;48.586;10.032;2022-09-16T05:34:01;6.97;;;6.27;;
1507;SDS011;745;48.586;10.032;2022-09-16T05:38:33;6.90;;;6.30;;
1507;SDS011;745;48.586;10.032;2022-09-16T05:43:04;5.97;;;5.37;;
1507;SDS011;745;48.586;10.032;2022-09-16T05:47:35;5.43;;;4.93;;
1507;SDS011;745;48.586;10.032;2022-09-16T05:52:05;5.30;;;4.80;;
1507;SDS011;745;48.586;10.032;2022-09-16T05:56:36;4.87;;;4.47;;
1507;SDS011;745;48.586;10.032;2022-09-16T06:01:07;5.17;;;4.77;;
1507;SDS011;745;48.586;10.032;2022-09-16T06:05:39;5.37;;;4.87;;
1507;SDS011;745;48.586;10.032;2022-09-16T06:10:10;5.80;;;5.20;;
1507;SDS011;745;48.586;10.032;2022-09-16T06:14:41;6.50;;;5.67;;
1507;SDS011;745;48.586;10.032;2022-09-16T06:19:15;8.30;;;7.50;;
1507;SDS011;745;48.586;10.032;2022-09-16T06:23:46;9.13;;;8.10;;
1507;SDS011;745;48.586;10.032;2022-09-16T06:28:17;10.27;;;9.20;;
1507;SDS011;745;48.586;10.032;2022-09-16T06:32:47;11.67;;;9.23;;
1507;SDS011;745;48.586;10.032;2022-09-16T06:37:18;8.63;;;7.83;;
1507;SDS011;745;48.586;10.032;2022-09-16T06:41:48;9.03;;;8.20;;
1507;SDS011;745;48.586;10.032;2022-09-16T06:46:20;8.80;;;7.40;;
1507;SDS011;745;48.586;10.032;2022-09-16T06:50:59;7.93;;;7.20;;
1507;SDS011;745;48.586;10.032;2022-09-16T06:55:31;8.73;;;7.90;;
1507;SDS011;745;48.586;10.032;2022-09-16T07:00:02;7.43;;;6.73;;
1507;SDS011;745;48.586;10.032;2022-09-16T07:04:33;8.50;;;7.80;;
1507;SDS011;745;48.586;10.032;2022-09-16T07:09:05;8.90;;;8.10;;
1507;SDS011;745;48.586;10.032;2022-09-16T07:13:35;9.23;;;8.20;;
1507;SDS011;745;48.586;10.032;2022-09-16T07:18:07;7.40;;;6.70;;
1507;SDS011;745;48.586;10.032;2022-09-16T07:22:38;5.67;;;5.17;;
1507;SDS011;745;48.586;10.032;2022-09-16T07:27:08;6.30;;;5.70;;
1507;SDS011;745;48.586;10.032;2022-09-16T07:31:39;6.60;;;6.00;;
1507;SDS011;745;48.586;10.032;2022-09-16T07:36:11;5.97;;;5.47;;
1507;SDS011;745;48.586;10.032;2022-09-16T07:40:42;6.67;;;5.97;;
1507;SDS011;745;48.586;10.032;2022-09-16T07:45:14;5.87;;;5.40;;
1507;SDS011;745;48.586;10.032;2022-09-16T07:49:45;5.93;;;5.43;;
1507;SDS011;745;48.586;10.032;2022-09-16T07:54:16;6.37;;;5.77;;
1507;SDS011;745;48.586;10.032;2022-09-16T07:58:47;5.60;;;5.10;;
1507;SDS011;745;48.586;10.032;2022-09-16T08:03:18;5.93;;;4.87;;
1507;SDS011;745;48.586;10.032;2022-09-16T08:07:48;5.93;;;5.43;;
1507;SDS011;745;48.586;10.032;2022-09-16T08:12:19;4.73;;;4.30;;
1507;SDS011;745;48.586;10.032;2022-09-16T08:16:49;5.20;;;4.70;;
1507;SDS011;745;48.586;10.032;2022-09-16T08:21:21;5.33;;;3.77;;
1507;SDS011;745;48.586;10.032;2022-09-16T08:25:56;6.70;;;4.93;;
1507;SDS011;745;48.586;10.032;2022-09-16T08:30:28;4.80;;;4.40;;
1507;SDS011;745;48.586;10.032;2022-09-16T08:34:59;4.43;;;4.03;;
1507;SDS011;745;48.586;10.032;2022-09-16T08:39:31;4.13;;;3.80;;
1507;SDS011;745;48.586;10.032;2022-09-16T08:49:19;4.20;;;3.80;;
1507;SDS011;745;48.586;10.032;2022-09-16T08:54:42;3.23;;;3.03;;
1507;SDS011;745;48.586;10.032;2022-09-16T08:59:12;3.60;;;3.30;;
1507;SDS011;745;48.586;10.032;2022-09-16T09:03:46;3.47;;;3.17;;
1507;SDS011;745;48.586;10.032;2022-09-16T09:08:21;4.10;;;3.70;;
1507;SDS011;745;48.586;10.032;2022-09-16T09:41:58;3.07;;;2.77;;
1507;SDS011;745;48.586;10.032;2022-09-16T09:46:34;4.07;;;3.67;;
1507;SDS011;745;48.586;10.032;2022-09-16T09:51:28;3.60;;;3.30;;
1507;SDS011;745;48.586;10.032;2022-09-16T10:00:51;4.07;;;3.77;;
1507;SDS011;745;48.586;10.032;2022-09-16T10:05:26;3.10;;;2.90;;
1507;SDS011;745;48.586;10.032;2022-09-16T10:10:02;2.67;;;2.47;;
1507;SDS011;745;48.586;10.032;2022-09-16T10:14:35;2.83;;;2.63;;
1507;SDS011;745;48.586;10.032;2022-09-16T10:19:15;4.63;;;3.53;;
1507;SDS011;745;48.586;10.032;2022-09-16T10:23:55;3.40;;;3.10;;
1507;SDS011;745;48.586;10.032;2022-09-16T10:28:27;3.50;;;3.17;;
1507;SDS011;745;48.586;10.032;2022-09-16T10:33:16;4.03;;;3.73;;
1507;SDS011;745;48.586;10.032;2022-09-16T10:38:03;3.40;;;3.10;;
1507;SDS011;745;48.586;10.032;2022-09-16T10:42:35;3.33;;;3.13;;
1507;SDS011;745;48.586;10.032;2022-09-16T10:47:15;3.50;;;2.87;;
1507;SDS011;745;48.586;10.032;2022-09-16T10:52:05;4.00;;;3.67;;
1507;SDS011;745;48.586;10.032;2022-09-16T10:56:48;4.50;;;4.10;;
1507;SDS011;745;48.586;10.032;2022-09-16T11:02:23;4.83;;;4.30;;
1507;SDS011;745;48.586;10.032;2022-09-16T11:20:25;4.07;;;3.73;;
1507;SDS011;745;48.586;10.032;2022-09-16T11:25:07;4.57;;;4.17;;
1507;SDS011;745;48.586;10.032;2022-09-16T11:34:39;4.10;;;3.70;;
1507;SDS011;745;48.586;10.032;2022-09-16T11:49:01;4.37;;;4.07;;
1507;SDS011;745;48.586;10.032;2022-09-16T11:58:49;5.23;;;3.93;;
1507;SDS011;745;48.586;10.032;2022-09-16T12:07:59;4.33;;;3.93;;
1507;SDS011;745;48.586;10.032;2022-09-16T12:12:57;4.07;;;3.67;;
1507;SDS011;745;48.586;10.032;2022-09-16T12:17:36;5.03;;;4.63;;
1507;SDS011;745;48.586;10.032;2022-09-16T12:22:11;4.80;;;4.30;;
1507;SDS011;745;48.586;10.032;2022-09-16T12:27:07;6.17;;;4.10;;
1507;SDS011;745;48.586;10.032;2022-09-16T12:31:41;4.50;;;4.10;;
1507;SDS011;745;48.586;10.032;2022-09-16T12:36:24;4.43;;;4.03;;
1507;SDS011;745;48.586;10.032;2022-09-16T12:41:06;4.73;;;4.20;;
1507;SDS011;745;48.586;10.032;2022-09-16T12:50:20;4.60;;;4.20;;
1507;SDS011;745;48.586;10.032;2022-09-16T13:04:42;5.30;;;4.53;;
1507;SDS011;745;48.586;10.032;2022-09-16T13:09:19;5.60;;;4.40;;
1507;SDS011;745;48.586;10.032;2022-09-16T13:13:55;5.80;;;3.80;;
1507;SDS011;745;48.586;10.032;2022-09-16T13:18:43;4.70;;;4.30;;
1507;SDS011;745;48.586;10.032;2022-09-16T13:23:16;4.87;;;3.87;;
1507;SDS011;745;48.586;10.032;2022-09-16T13:27:54;4.93;;;3.73;;
1507;SDS011;745;48.586;10.032;2022-09-16T13:32:37;6.03;;;4.47;;
1507;SDS011;745;48.586;10.032;2022-09-16T13:37:14;4.03;;;3.67;;
1507;SDS011;745;48.586;10.032;2022-09-16T13:41:45;4.30;;;3.90;;
1507;SDS011;745;48.586;10.032;2022-09-16T13:46:29;3.50;;;3.20;;
1507;SDS011;745;48.586;10.032;2022-09-16T13:51:17;6.10;;;3.03;;
1507;SDS011;745;48.586;10.032;2022-09-16T13:55:49;3.83;;;3.17;;
1507;SDS011;745;48.586;10.032;2022-09-16T14:00:21;3.67;;;3.10;;
1507;SDS011;745;48.586;10.032;2022-09-16T14:14:27;5.30;;;3.40;;
1507;SDS011;745;48.586;10.032;2022-09-16T14:19:03;4.00;;;2.80;;
1507;SDS011;745;48.586;10.032;2022-09-16T14:23:36;3.30;;;3.00;;
1507;SDS011;745;48.586;10.032;2022-09-16T14:32:48;3.20;;;2.97;;
1507;SDS011;745;48.586;10.032;2022-09-16T14:37:18;3.00;;;2.80;;
1507;SDS011;745;48.586;10.032;2022-09-16T14:41:54;4.00;;;2.70;;
1507;SDS011;745;48.586;10.032;2022-09-16T14:46:32;3.87;;;3.03;;
1507;SDS011;745;48.586;10.032;2022-09-16T14:51:14;2.67;;;2.47;;
1507;SDS011;745;48.586;10.032;2022-09-16T14:55:49;2.60;;;2.40;;
1507;SDS011;745;48.586;10.032;2022-09-16T15:00:20;2.40;;;2.20;;
1507;SDS011;745;48.586;10.032;2022-09-16T15:05:53;2.53;;;2.33;;
1507;SDS011;745;48.586;10.032;2022-09-16T15:10:06;3.23;;;2.40;;
1507;SDS011;745;48.586;10.032;2022-09-16T15:14:57;3.60;;;2.40;;
1507;SDS011;745;48.586;10.032;2022-09-16T15:19:40;3.63;;;2.70;;
1507;SDS011;745;48.586;10.032;2022-09-16T15:24:15;2.80;;;2.60;;
1507;SDS011;745;48.586;10.032;2022-09-16T15:33:44;3.27;;;2.47;;
1507;SDS011;745;48.586;10.032;2022-09-16T15:38:21;4.07;;;2.27;;
1507;SDS011;745;48.586;10.032;2022-09-16T15:43:03;3.80;;;2.83;;
1507;SDS011;745;48.586;10.032;2022-09-16T15:47:52;3.63;;;2.80;;
1507;SDS011;745;48.586;10.032;2022-09-16T15:52:25;5.43;;;3.50;;
1507;SDS011;745;48.586;10.032;2022-09-16T15:57:00;3.43;;;2.53;;
1507;SDS011;745;48.586;10.032;2022-09-16T16:01:36;3.80;;;3.07;;
1507;SDS011;745;48.586;10.032;2022-09-16T16:06:11;4.30;;;2.70;;
1507;SDS011;745;48.586;10.032;2022-09-16T16:10:42;3.70;;;2.80;;
1507;SDS011;745;48.586;10.032;2022-09-16T16:15:37;3.27;;;2.97;;
1507;SDS011;745;48.586;10.032;2022-09-16T16:20:10;6.37;;;3.33;;
1507;SDS011;745;48.586;10.032;2022-09-16T16:24:42;7.47;;;3.17;;
1507;SDS011;745;48.586;10.032;2022-09-16T16:29:13;3.10;;;2.90;;
1507;SDS011;745;48.586;10.032;2022-09-16T16:33:43;3.00;;;2.70;;
1507;SDS011;745;48.586;10.032;2022-09-16T16:38:15;3.67;;;2.50;;
1507;SDS011;745;48.586;10.032;2022-09-16T16:42:45;4.50;;;3.17;;
1507;SDS011;745;48.586;10.032;2022-09-16T16:47:16;3.50;;;3.20;;
1507;SDS011;745;48.586;10.032;2022-09-16T16:51:47;3.77;;;3.47;;
1507;SDS011;745;48.586;10.032;2022-09-16T16:56:19;4.10;;;3.70;;
1507;SDS011;745;48.586;10.032;2022-09-16T17:00:50;3.90;;;3.60;;
1507;SDS011;745;48.586;10.032;2022-09-16T17:05:21;3.70;;;3.40;;
1507;SDS011;745;48.586;10.032;2022-09-16T17:09:52;3.73;;;3.37;;
1507;SDS011;745;48.586;10.032;2022-09-16T17:14:23;3.93;;;3.63;;
1507;SDS011;745;48.586;10.032;2022-09-16T17:18:56;4.17;;;3.77;;
1507;SDS011;745;48.586;10.032;2022-09-16T17:23:28;3.00;;;2.70;;
1507;SDS011;745;48.586;10.032;2022-09-16T17:27:59;3.53;;;3.23;;
1507;SDS011;745;48.586;10.032;2022-09-16T17:32:30;3.00;;;2.70;;
1507;SDS011;745;48.586;10.032;2022-09-16T17:37:00;2.77;;;2.57;;
1507;SDS011;745;48.586;10.032;2022-09-16T17:41:33;3.20;;;3.00;;
1507;SDS011;745;48.586;10.032;2022-09-16T17:46:09;3.97;;;3.60;;
1507;SDS011;745;48.586;10.032;2022-09-16T17:50:42;3.13;;;2.83;;
1507;SDS011;745;48.586;10.032;2022-09-16T17:55:12;3.50;;;3.20;;
1507;SDS011;745;48.586;10.032;2022-09-16T17:59:43;3.63;;;3.10;;
1507;SDS011;745;48.586;10.032;2022-09-16T18:04:13;4.03;;;3.13;;
1507;SDS011;745;48.586;10.032;2022-09-16T18:08:44;3.67;;;2.90;;
1507;SDS011;745;48.586;10.032;2022-09-16T18:13:15;3.13;;;2.93;;
1507;SDS011;745;48.586;10.032;2022-09-16T18:17:45;2.63;;;2.43;;
1507;SDS011;745;48.586;10.032;2022-09-16T18:22:17;4.53;;;3.50;;
1507;SDS011;745;48.586;10.032;2022-09-16T18:26:47;2.97;;;2.77;;
1507;SDS011;745;48.586;10.032;2022-09-16T18:31:19;3.30;;;3.00;;
1507;SDS011;745;48.586;10.032;2022-09-16T18:35:56;4.87;;;3.13;;
1507;SDS011;745;48.586;10.032;2022-09-16T18:40:31;2.53;;;2.33;;
1507;SDS011;745;48.586;10.032;2022-09-16T18:45:02;3.40;;;3.10;;
1507;SDS011;745;48.586;10.032;2022-09-16T18:49:33;5.20;;;3.10;;
1507;SDS011;745;48.586;10.032;2022-09-16T18:54:05;4.00;;;3.00;;
1507;SDS011;745;48.586;10.032;2022-09-16T18:58:37;2.63;;;2.43;;
1507;SDS011;745;48.586;10.032;2022-09-16T19:03:07;3.53;;;2.60;;
1507;SDS011;745;48.586;10.032;2022-09-16T19:07:39;2.77;;;2.50;;
1507;SDS011;745;48.586;10.032;2022-09-16T19:12:11;3.07;;;2.20;;
1507;SDS011;745;48.586;10.032;2022-09-16T19:16:43;2.20;;;1.90;;
1507;SDS011;745;48.586;10.032;2022-09-16T19:21:14;2.43;;;1.90;;
1507;SDS011;745;48.586;10.032;2022-09-16T19:25:47;2.23;;;1.93;;
1507;SDS011;745;48.586;10.032;2022-09-16T19:30:17;2.03;;;1.90;;
1507;SDS011;745;48.586;10.032;2022-09-16T19:34:48;7.60;;;2.83;;
1507;SDS011;745;48.586;10.032;2022-09-16T19:39:19;2.00;;;1.80;;
1507;SDS011;745;48.586;10.032;2022-09-16T19:43:53;1.93;;;1.80;;
1507;SDS011;745;48.586;10.032;2022-09-16T19:48:25;2.50;;;2.30;;
1507;SDS011;745;48.586;10.032;2022-09-16T19:52:57;2.00;;;1.80;;
1507;SDS011;745;48.586;10.032;2022-09-16T19:57:28;2.10;;;1.90;;
1507;SDS011;745;48.586;10.032;2022-09-16T20:01:59;2.53;;;2.30;;
1507;SDS011;745;48.586;10.032;2022-09-16T20:06:31;1.97;;;1.87;;
1507;SDS011;745;48.586;10.032;2022-09-16T20:11:05;1.83;;;1.73;;
1507;SDS011;745;48.586;10.032;2022-09-16T20:15:37;3.07;;;2.07;;
1507;SDS011;745;48.586;10.032;2022-09-16T20:20:07;2.60;;;2.40;;
1507;SDS011;745;48.586;10.032;2022-09-16T20:24:38;2.47;;;2.13;;
1507;SDS011;745;48.586;10.032;2022-09-16T20:29:08;2.80;;;2.50;;
1507;SDS011;745;48.586;10.032;2022-09-16T20:33:39;3.27;;;2.83;;
1507;SDS011;745;48.586;10.032;2022-09-16T20:38:10;2.47;;;2.30;;
1507;SDS011;745;48.586;10.032;2022-09-16T20:42:41;2.43;;;2.23;;
1507;SDS011;745;48.586;10.032;2022-09-16T20:47:11;2.00;;;1.90;;
1507;SDS011;745;48.586;10.032;2022-09-16T20:51:44;3.47;;;3.00;;
1507;SDS011;745;48.586;10.032;2022-09-16T20:56:15;3.53;;;3.23;;
1507;SDS011;745;48.586;10.032;2022-09-16T21:00:46;3.50;;;2.83;;
1507;SDS011;745;48.586;10.032;2022-09-16T21:05:18;3.00;;;2.80;;
1507;SDS011;745;48.586;10.032;2022-09-16T21:09:49;3.47;;;3.00;;
1507;SDS011;745;48.586;10.032;2022-09-16T21:14:20;4.20;;;2.87;;
1507;SDS011;745;48.586;10.032;2022-09-16T21:18:54;3.03;;;2.83;;
1507;SDS011;745;48.586;10.032;2022-09-16T21:23:45;3.13;;;2.90;;
1507;SDS011;745;48.586;10.032;2022-09-16T21:28:16;2.93;;;2.60;;
1507;SDS011;745;48.586;10.032;2022-09-16T21:32:47;2.57;;;2.37;;
1507;SDS011;745;48.586;10.032;2022-09-16T21:37:17;3.37;;;3.07;;
1507;SDS011;745;48.586;10.032;2022-09-16T21:41:48;2.60;;;2.40;;
1507;SDS011;745;48.586;10.032;2022-09-16T21:46:19;2.70;;;2.50;;
1507;SDS011;745;48.586;10.032;2022-09-16T21:50:59;3.17;;;2.87;;
1507;SDS011;745;48.586;10.032;2022-09-16T21:55:31;3.40;;;2.77;;
1507;SDS011;745;48.586;10.032;2022-09-16T22:00:02;2.70;;;2.50;;
1507;SDS011;745;48.586;10.032;2022-09-16T22:04:33;2.47;;;2.27;;
1507;SDS011;745;48.586;10.032;2022-09-16T22:09:05;2.90;;;2.30;;
1507;SDS011;745;48.586;10.032;2022-09-16T22:13:39;2.90;;;2.70;;
1507;SDS011;745;48.586;10.032;2022-09-16T22:18:10;3.23;;;2.83;;
1507;SDS011;745;48.586;10.032;2022-09-16T22:22:41;3.87;;;3.50;;
1507;SDS011;745;48.586;10.032;2022-09-16T22:27:11;3.50;;;3.20;;
1507;SDS011;745;48.586;10.032;2022-09-16T22:31:46;2.83;;;2.63;;
1507;SDS011;745;48.586;10.032;2022-09-16T22:36:20;2.70;;;2.50;;
1507;SDS011;745;48.586;10.032;2022-09-16T22:40:52;3.00;;;2.80;;
1507;SDS011;745;48.586;10.032;2022-09-16T22:45:22;2.70;;;2.50;;
1507;SDS011;745;48.586;10.032;2022-09-16T22:49:53;3.10;;;2.67;;
1507;SDS011;745;48.586;10.032;2022-09-16T22:54:23;3.10;;;2.80;;
1507;SDS011;745;48.586;10.032;2022-09-16T22:58:54;2.50;;;2.30;;
1507;SDS011;745;48.586;10.032;2022-09-16T23:03:25;3.50;;;3.20;;
1507;SDS011;745;48.586;10.032;2022-09-16T23:07:56;3.53;;;3.23;;
1507;SDS011;745;48.586;10.032;2022-09-16T23:12:26;4.73;;;4.33;;
1507;SDS011;745;48.586;10.032;2022-09-16T23:16:58;4.37;;;3.97;;
1507;SDS011;745;48.586;10.032;2022-09-16T23:21:29;3.60;;;3.30;;
1507;SDS011;745;48.586;10.032;2022-09-16T23:26:04;6.90;;;3.73;;
1507;SDS011;745;48.586;10.032;2022-09-16T23:30:36;4.87;;;3.73;;
1507;SDS011;745;48.586;10.032;2022-09-16T23:35:07;4.60;;;4.20;;
1507;SDS011;745;48.586;10.032;2022-09-16T23:39:38;3.87;;;3.30;;
1507;SDS011;745;48.586;10.032;2022-09-16T23:44:10;4.07;;;3.67;;
1507;SDS011;745;48.586;10.032;2022-09-16T23:48:42;3.90;;;3.60;;
1507;SDS011;745;48.586;10.032;2022-09-16T23:53:15;3.77;;;3.40;;
1507;SDS011;745;48.586;10.032;2022-09-16T23:57:45;3.47;;;3.17;;
